Abbeville, LA

9:36 PM CDT on April 24, 2015 (GMT -0500)
Delcambre | | Change Station
CLOSE
Current Station
Personal Weather Station
Location: Erath, LA
Elevation: 0 ft
Nearby Weather Stations

Elev 0 ft 29.98 °N, 92.01 °W | Updated 11 minutes ago

Overcast
Overcast
72.6 °F
Feels Like 71 °F
N
4.0
Wind Variable Wind from SE
Gusts 8.0 mph

Today
High -- | Low -- °F
--% Chance of Precip.
Yesterday
High -- | Low -- °F
Precip. -- in
6:32 AM 7:41 PM
Waxing Crescent, 41% visible
Pressure 29.78 in
Visibility 10.0 miles
Clouds Overcast 600 ft
Heat Index 71 °F
Dew Point Not available.
Humidity Not available.
Rainfall 0.00 in
Snow Depth Not available.
UV 0 out of 12
Pollen 7.40 out of 12
Air Quality Not available.
Flu Activity Sporadic
METAR KIYA 250215Z AUTO 15009KT 10SM OVC006 24/23 A2978 RMK AO2 T02400232

More Conditions Fewer Conditions

Pressure 29.78 in
Visibility 10.0 miles
Clouds Overcast 600 ft
Heat Index 71 °F
Dew Point Not available.
Humidity Not available.
Rainfall 0.00 in
Snow Depth Not available.
UV 0 out of 12
Pollen 7.40 out of 12
Air Quality Not available.
Flu Activity Sporadic
METAR KIYA 250215Z AUTO 15009KT 10SM OVC006 24/23 A2978 RMK AO2 T02400232

More Conditions Fewer Conditions

There is an enhanced risk of severe weather for parts of Texas, Louisiana, southern Arkansas, and Kansas. A slight risk of severe weather encompasses a wide area of the Plains and Lower Mississippi Valley as well. This means severe thunderstorms will be capable of producing strong wind, large hail, heavy rain, and the possibility of tornadoes into the evening.

10-Day Weather Forecast

Almanac

Astronomy

Apr. 24, 2015 Rise Set
Actual Time
Civil Twilight
Nautical Twilight
Astronomical Twilight
Moon
Length of Visible Light
Length of Day
Tomorrow will be .
, % of the Moon is Illuminated

Today's Extremes

State Highs State Lows

Community

WunderPhotos

Upload Photos

1,816,576 photos uploaded!

WunderBlogs® & News

Nearby

Air Quality

  Air Quality AQ Index Pollutant
Not available.

Snow Depth

Station Depth Elevation

Earthquake Activity

City Distance Mag. Time & Date
Minimum magnitude displayed is 2.5.

Coastal Water Temperatures

Place Temperature

Stations

Nearby Weather Stations

Station Location Temp. Windchill Dew Point Humidity Wind Precip. Elev Updated Type